Flight Track Log - Related Links

Times and Time Zones

All times are in EST time to prevent confusion due to time zone crossing. See the N682RW flight status page for this flight to view local times or setup timezone preferences in your user account.

Time Position Orientation Groundspeed Altitude Reporting Facility
EST Latitude Longitude Course Direction KTS MPH feet Rate Location/Type
Mon 03:08:38 PM 42.1900 -83.3564 180° South 157 181 1,600  Level Cleveland Center
Mon 03:09:39 PM 42.1314 -83.3567 180° South 250 288 4,400 3,060 Climbing Cleveland Center
Mon 03:10:18 PM 42.0900 -83.3394 163° South 252 290 6,700 3,541 Climbing Cleveland Center
Mon 03:10:40 PM 42.0722 -83.3089 128° Southeast 285 328 8,000 3,000 Climbing Cleveland Center
Mon 03:11:20 PM 42.0681 -83.2411 95° East 283 326 9,800 2,235 Climbing Cleveland Center
Mon 03:12:22 PM 42.0942 -83.1383 71° East 310 357 11,800 2,129 Climbing Cleveland Center
Mon 03:13:24 PM 42.1211 -83.0086 74° East 359 413 14,200 2,488 Climbing Cleveland Center
Mon 03:14:25 PM 42.1183 -82.8583 91° East 414 476 16,900 2,293 Climbing Cleveland Center
Mon 03:15:27 PM 42.0939 -82.6667 100° East 432 497 18,900 2,032 Climbing Cleveland Center
Mon 03:16:29 PM 42.0781 -82.4961 97° East 457 526 21,100 1,935 Climbing Cleveland Center
Mon 03:17:31 PM 42.0589 -82.3203 98° East 471 542 22,900 1,707 Climbing Cleveland Center
Mon 03:18:32 PM 42.0397 -82.1375 98° East 490 564 24,600 1,610 Climbing Cleveland Center
Mon 03:19:34 PM 42.0189 -81.9500 98° East 506 582 26,200 1,500 Climbing Cleveland Center
Mon 03:20:36 PM 41.9975 -81.7531 98° East 520 598 27,700 1,548 Climbing Cleveland Center
Mon 03:21:38 PM 41.9717 -81.5225 98° East 525 604 29,400 1,122 Climbing Cleveland Center
Mon 03:22:39 PM 41.9492 -81.3228 99° East 532 612 30,000 683 Climbing Cleveland Center
Mon 03:23:41 PM 41.9275 -81.1308 99° East 515 593 30,800 871 Climbing Cleveland Center
Mon 03:24:43 PM 41.9061 -80.9464 99° East 500 575 31,800 871 Climbing Cleveland Center
Mon 03:25:45 PM 41.8833 -80.7639 99° East 492 566 32,600 585 Climbing Cleveland Center
Mon 03:26:46 PM 41.8617 -80.5783 99° East 496 571 33,000 195 Climbing Cleveland Center
Mon 03:27:48 PM 41.8397 -80.3919 99° East 498 573 33,000  Level Cleveland Center
Mon 03:28:50 PM 41.8156 -80.2064 100° East 500 575 33,000  Level Cleveland Center
Mon 03:29:52 PM 41.7919 -80.0222 100° East 499 574 33,000  Level Cleveland Center
Mon 03:30:53 PM 41.7700 -79.8392 99° East 497 572 33,000  Level Cleveland Center
Mon 03:31:55 PM 41.7411 -79.6256 100° East 496 571 33,000  Level Cleveland Center
Mon 03:32:57 PM 41.7169 -79.4419 100° East 499 574 33,000  Level Cleveland Center
Mon 03:33:58 PM 41.6919 -79.2497 100° East 499 574 33,000  Level Cleveland Center
Mon 03:35:00 PM 41.6653 -79.0614 101° East 508 585 33,000  Level Cleveland Center
Mon 03:36:02 PM 41.6425 -78.8828 100° East 518 596 33,000  Level Cleveland Center
Mon 03:37:03 PM 41.6158 -78.6894 100° East 524 603 33,000  Level Cleveland Center
Mon 03:38:05 PM 41.5881 -78.4978 101° East 524 603 33,000 -387 Level Cleveland Center
Mon 03:39:07 PM 41.5608 -78.3044 101° East 524 603 32,200 -968 Descending Cleveland Center
Mon 03:40:09 PM 41.5283 -78.0772 101° East 523 602 31,000 -735 Descending Cleveland Center
Mon 03:40:45 PM 41.5164 -77.9958 101° East 521 600 31,000  Level New York Center
Mon 03:41:47 PM 41.4844 -77.7644 100° East 527 606 31,000 -242 Level New York Center
Mon 03:42:49 PM 41.4578 -77.5681 100° East 542 624 30,500 -1,016 Descending New York Center
Mon 03:43:51 PM 41.4244 -77.3686 103° East 533 613 28,900 -1,500 Descending New York Center
Mon 03:44:53 PM 41.4008 -77.1747 99° East 535 616 27,400 -1,415 Descending New York Center
Mon 03:45:54 PM 41.3722 -76.9872 101° East 521 600 26,000 -1,268 Descending New York Center
Mon 03:46:56 PM 41.3439 -76.8008 101° East 516 594 24,800 -1,161 Descending New York Center
Mon 03:47:58 PM 41.2989 -76.6286 109° East 502 578 23,600 -871 Descending New York Center
Mon 03:49:00 PM 41.2450 -76.4253 109° East 497 572 23,000 -774 Descending New York Center
Mon 03:50:02 PM 41.1994 -76.2592 110° East 496 571 22,000 -1,210 Descending New York Center
Mon 03:51:04 PM 41.1553 -76.0961 110° East 479 551 20,500 -1,065 Descending New York Center
Mon 03:52:06 PM 41.1136 -75.9428 110° East 448 516 19,800 -1,065 Descending New York Center
Mon 03:53:08 PM 41.0683 -75.7781 110° East 401 461 18,300 -1,355 Descending New York Center
Mon 03:54:10 PM 41.0300 -75.6400 110° East 386 444 17,000 -1,161 Descending New York Center
Mon 03:55:12 PM 40.9931 -75.5122 111° Southeast 373 429 15,900 -1,024 Descending New York Center
Mon 03:56:13 PM 40.9575 -75.3889 111° Southeast 345 397 14,900 -976 Descending New York Center
Mon 03:57:15 PM 40.9272 -75.2767 110° East 309 356 13,900 -1,065 Descending New York Center
Mon 03:58:17 PM 40.8972 -75.1731 111° Southeast 290 334 12,700 -1,113 Descending New York Center
Mon 03:59:19 PM 40.8722 -75.0844 110° East 270 311 11,600 -1,258 Descending New York Center
Mon 04:00:21 PM 40.8094 -75.0714 171° South 247 284 10,100 -774 Descending New York Center
Mon 04:01:23 PM 40.8028 -75.1544 264° West 229 264 10,000 -48 Descending New York Center
Mon 04:02:25 PM 40.8258 -75.2347 291° West 226 260 10,000  Level New York Center
Mon 04:03:27 PM 40.8503 -75.3144 292° West 226 260 10,000  Level New York Center
Mon 04:04:29 PM 40.9097 -75.3078 North 227 261 10,000  Level New York Center
Mon 04:05:31 PM 40.9111 -75.2244 89° East 239 275 10,000  Level New York Center
Mon 04:06:33 PM 40.8903 -75.1425 109° East 242 278 10,000  Level New York Center
Mon 04:07:35 PM 40.8503 -75.0694 126° Southeast 248 285 10,000  Level New York Center
Mon 04:08:37 PM 40.7997 -75.1114 212° Southwest 238 274 10,000  Level New York Center
Mon 04:09:40 PM 40.8206 -75.1992 287° West 228 262 10,000  Level New York Center
Mon 04:10:42 PM 40.8439 -75.2789 291° West 226 260 10,000  Level New York Center
Mon 04:11:44 PM 40.8964 -75.3025 341° North 226 260 10,000  Level New York Center
Mon 04:12:46 PM 40.9111 -75.2253 76° East 242 278 10,000  Level New York Center
Mon 04:13:48 PM 40.8881 -75.1367 109° East 246 283 10,000  Level New York Center
Mon 04:14:50 PM 40.8497 -75.0722 128° Southeast 244 281 10,000 -145 Level New York Center
Mon 04:15:52 PM 40.7992 -75.1225 217° Southwest 238 274 9,700 -480 Descending New York Center
Mon 04:16:55 PM 40.8219 -75.2025 291° West 228 262 9,000 -336 Descending New York Center
Mon 04:17:57 PM 40.8450 -75.2831 291° West 228 262 9,000 48 Level New York Center
Mon 04:18:59 PM 40.8978 -75.3006 346° North 220 253 9,100  Climbing New York Center
Mon 04:20:01 PM 40.9108 -75.2233 77° East 234 269 9,000 -194 Descending New York Center
Mon 04:21:03 PM 40.8881 -75.1364 109° East 240 276 8,700 -484 Descending New York Center
Mon 04:22:05 PM 40.8458 -75.0753 132° Southeast 239 275 8,000 -290 Descending New York Center
Mon 04:23:07 PM 40.8061 -75.1283 225° Southwest 236 272 8,100  Climbing New York Center
Mon 04:24:09 PM 40.8356 -75.2017 298° West 220 253 8,000 -435 Descending New York Center
Mon 04:25:11 PM 40.8744 -75.1569 41° Northeast 215 247 7,200 -480 Descending New York Center
Mon 04:26:14 PM 40.8597 -75.0733 103° East 222 255 7,000 -96 Descending New York Center
Mon 04:27:16 PM 40.8425 -74.9933 106° East 219 252 7,000 -145 Level New York Center
Mon 04:28:18 PM 40.8167 -74.9072 112° Southeast 259 298 6,700 -484 Descending New York Center
Mon 04:29:20 PM 40.7631 -74.8331 134° Southeast 269 310 6,000 -339 Descending New York Center
Mon 04:30:22 PM 40.7133 -74.7614 132° Southeast 266 306 6,000 -242 Level New York Center
Mon 04:31:24 PM 40.6492 -74.7003 144° Southeast 277 319 5,500 -529 Descending New York Center
Mon 04:32:04 PM 40.6000 -74.6667 153° Southeast 269 310 5,100 -300 Descending New York TRACON
Mon 04:33:04 PM 40.5500 -74.6167 143° Southeast 267 307 5,000 -50 Descending New York TRACON
Mon 04:34:04 PM 40.5000 -74.5500 135° Southeast 268 308 5,000 -300 Level New York TRACON
Mon 04:35:04 PM 40.4667 -74.4833 123° Southeast 216 249 4,400 -700 Descending New York TRACON
Mon 04:36:04 PM 40.4500 -74.4167 108° East 189 217 3,600 -706 Descending New York TRACON
Mon 04:37:03 PM 40.4500 -74.3500 90° East 189 217 3,000 -303 Descending New York TRACON
Mon 04:38:03 PM 40.4833 -74.3000 49° Northeast 186 214 3,000  Level New York TRACON
Mon 04:39:03 PM 40.5333 -74.2667 27° Northeast 171 197 3,000 -150 Level New York TRACON
Mon 04:40:03 PM 40.5667 -74.2333 37° Northeast 167 192 2,700 -645 Descending New York TRACON
Mon 04:41:04 PM 40.6167 -74.2167 14° North 155 178 1,700 -893 Descending New York TRACON
Mon 04:42:04 PM 40.6500 -74.2000 21° North 132 152 900 -549 Descending New York TRACON
Mon 04:43:48 PM 40.7019 -74.1592 31° Northeast 135 155 200 -404 Descending New York Center
Mon 04:45:00 PM 40.6925 -74.1687 102° East  Level Estimated

Login

Don't have an account? Register now (free) for customized features, flight alerts, and more!